メインページ
METAR-TAF:

METAR-TAF

空港 :

Custer Airport

モンロー, ミシガン州, アメリカ合衆国

緯度: 41-56-24N, 経度: 083-26-05W, 海抜: 188m

現時点の気象観測

当レポートは26分前の18:17(UTC)に作成
西/南西の風 12kt、最大19ktの突風を伴う
気温 32°C
湿度 84%
気圧 1012 hPa
視程: 16.1km
高度2800ftの千切れ雲あり
高度3700ftの千切れ雲あり
高度4300ftの千切れ雲あり

METAR: KTTF 191817Z AUTO 24012G19KT 10SM BKN028 BKN037 BKN043 32/29 A2987 RMK AO2 T03240289

時間: 14:43 (18:43 UTC)


TAF: 見つかりません

4,000以上の空港の気象観測と天気予報(METAR報とTAF報)

利用可能な観測所は地図上に黄色い丸と赤い丸で示す。

丸の上にカーソルを重ねると観測所名を参照できる。

次にクリックすると気象観測と天気予報を参照できる。

マップの切り替え:黒色「×」印の緑ボタンをクリックして拡大、「-」印の緑ボタンをクリックして縮小、緑色の三角印をクリックして隣りの地図に切り替え


METAR-TAF: